Time;durP1;ratioP1;P1;durP2;ratioP2;P2;SDS_P1;SDS_P2;PMS_P1;PMS_P2;Temp;Humidity;BMP_temperature;BMP_pressure;BME280_temperature;BME280_humidity;BME280_pressure;Samples;Min_cycle;Max_cycle;Signal;HPM_P1;HPM_P2
2021/01/22 00:02:13;;;;;;;3.43;1.50;;;;;;;3.49;92.23;98516.06;5045267;28;20018;-78
2021/01/22 00:04:38;;;;;;;3.07;1.40;;;;;;;3.47;92.17;98520.25;5045283;28;20326;-78
2021/01/22 00:07:05;;;;;;;3.33;1.50;;;;;;;3.44;92.21;98536.31;5048311;28;20271;-78
2021/01/22 00:09:30;;;;;;;4.00;1.60;;;;;;;3.47;92.07;98550.72;5045753;28;20025;-80
2021/01/22 00:11:56;;;;;;;4.38;1.48;;;;;;;3.52;92.33;98554.19;5042885;28;20530;-79
2021/01/22 00:14:21;;;;;;;6.82;1.48;;;;;;;3.52;92.14;98561.78;5049993;28;20068;-79
2021/01/22 00:16:46;;;;;;;4.57;1.43;;;;;;;3.45;92.17;98562.53;5048134;28;20029;-79
2021/01/22 00:19:11;;;;;;;4.38;0.93;;;;;;;3.46;92.47;98564.25;5046041;28;20021;-78
2021/01/22 00:21:37;;;;;;;4.53;1.03;;;;;;;3.49;92.47;98564.28;5046066;28;20021;-78
2021/01/22 00:24:03;;;;;;;2.63;1.23;;;;;;;3.52;92.35;98573.63;5045500;28;20276;-79
2021/01/22 00:26:29;;;;;;;2.20;1.00;;;;;;;3.53;92.15;98576.19;5047153;28;20032;-79
2021/01/22 00:28:54;;;;;;;6.57;1.65;;;;;;;3.53;92.37;98571.13;5047548;28;20030;-79
2021/01/22 00:31:19;;;;;;;3.13;1.10;;;;;;;3.54;92.29;98577.91;5050130;28;20060;-79
2021/01/22 00:33:45;;;;;;;4.93;1.80;;;;;;;3.53;92.21;98577.88;5057220;28;20676;-79
2021/01/22 00:36:10;;;;;;;5.00;1.50;;;;;;;3.58;92.30;98579.69;5055635;28;20048;-81
2021/01/22 00:38:35;;;;;;;6.47;1.60;;;;;;;3.57;92.36;98588.09;5055754;28;20068;-79
2021/01/22 00:41:00;;;;;;;3.47;1.30;;;;;;;3.59;92.50;98591.53;5048469;28;20022;-81
2021/01/22 00:43:26;;;;;;;4.23;1.20;;;;;;;3.52;92.53;98589.72;5050871;28;20071;-78
2021/01/22 00:45:51;;;;;;;3.08;1.00;;;;;;;3.58;92.74;98588.97;5046969;28;20303;-80
2021/01/22 00:48:17;;;;;;;3.58;0.82;;;;;;;3.61;92.63;98589.88;5047349;28;20033;-79
2021/01/22 00:50:43;;;;;;;3.88;0.80;;;;;;;3.59;92.67;98598.31;5049931;28;20071;-79
2021/01/22 00:53:08;;;;;;;;;;;;;;;3.51;92.58;98615.06;5043646;28;20147;-79
2021/01/22 00:55:33;;;;;;;2.67;0.90;;;;;;;3.52;92.55;98604.94;5042138;28;19992;-78
2021/01/22 00:57:59;;;;;;;4.27;0.60;;;;;;;3.49;92.77;98615.03;5041816;28;20020;-79
2021/01/22 01:00:24;;;;;;;2.70;0.43;;;;;;;3.60;92.34;98625.41;5045577;28;20049;-78
2021/01/22 01:02:49;;;;;;;1.07;0.70;;;;;;;3.59;92.07;98627.06;5050180;28;20280;-78
2021/01/22 01:05:15;;;;;;;4.10;0.70;;;;;;;3.56;92.10;98627.00;5047725;28;20025;-77
2021/01/22 01:07:40;;;;;;;2.42;0.73;;;;;;;3.57;92.31;98631.25;5044913;28;20031;-78
2021/01/22 01:10:06;;;;;;;6.90;1.15;;;;;;;3.54;92.29;98622.72;5048774;28;20052;-78
2021/01/22 01:12:32;;;;;;;4.57;1.30;;;;;;;3.52;92.08;98626.94;5041610;28;20025;-78
2021/01/22 01:14:57;;;;;;;3.10;1.30;;;;;;;3.52;92.24;98632.00;5041499;28;20033;-78
2021/01/22 01:17:23;;;;;;;4.77;1.93;;;;;;;3.43;92.40;98637.81;5041346;28;20507;-78
2021/01/22 01:19:48;;;;;;;5.20;2.92;;;;;;;3.46;92.67;98640.38;5044857;28;20108;-78
2021/01/22 01:22:13;;;;;;;6.50;2.73;;;;;;;3.49;92.70;98644.66;5049172;28;20394;-77
2021/01/22 01:24:38;;;;;;;5.93;2.42;;;;;;;3.48;92.72;98651.41;5045699;28;20275;-77
2021/01/22 01:27:04;;;;;;;6.93;2.40;;;;;;;3.47;92.58;98659.00;5045460;28;20031;-78
2021/01/22 01:29:29;;;;;;;4.85;1.65;;;;;;;3.59;92.57;98662.63;5039452;28;20300;-78
2021/01/22 01:31:54;;;;;;;5.30;1.40;;;;;;;3.50;92.49;98667.53;5044337;28;20028;-78
2021/01/22 01:34:20;;;;;;;3.77;1.07;;;;;;;3.52;92.88;98682.78;5049760;28;20097;-78
2021/01/22 01:36:45;;;;;;;4.70;0.70;;;;;;;3.57;93.06;98694.72;5047560;28;20803;-77
2021/01/22 01:39:10;;;;;;;2.87;0.70;;;;;;;3.54;93.26;98699.72;5040688;28;20072;-79
2021/01/22 01:41:36;;;;;;;4.28;0.70;;;;;;;3.60;92.69;98696.47;5048056;28;20033;-78
2021/01/22 01:44:01;;;;;;;2.20;0.43;;;;;;;3.60;92.86;98694.78;5040393;28;20091;-78
2021/01/22 01:46:26;;;;;;;3.00;0.55;;;;;;;3.58;93.14;98691.38;5038015;28;20029;-78
2021/01/22 01:48:52;;;;;;;3.23;0.63;;;;;;;3.57;92.87;98689.63;5046834;28;20030;-78
2021/01/22 01:51:18;;;;;;;2.35;0.40;;;;;;;3.55;92.92;98695.50;5042074;28;20033;-78
2021/01/22 01:53:43;;;;;;;5.45;0.55;;;;;;;3.50;92.59;98690.38;5040766;28;20035;-78
2021/01/22 01:56:08;;;;;;;0.70;0.35;;;;;;;3.51;92.38;98683.59;5042657;28;20402;-79
2021/01/22 01:58:34;;;;;;;5.13;0.60;;;;;;;3.46;92.57;98696.22;5040184;28;20081;-78
2021/01/22 02:00:59;;;;;;;2.80;0.32;;;;;;;3.42;92.67;98704.59;5036252;28;20049;-77
2021/01/22 02:03:25;;;;;;;2.63;0.43;;;;;;;3.44;92.87;98708.03;5041759;28;20032;-78
2021/01/22 02:05:50;;;;;;;4.18;0.80;;;;;;;3.47;92.76;98713.16;5041774;28;20108;-78
2021/01/22 02:08:17;;;;;;;5.60;0.40;;;;;;;3.53;92.49;98710.72;5036923;28;20095;-78
2021/01/22 02:10:43;;;;;;;4.97;0.50;;;;;;;3.54;92.53;98719.19;5044328;28;20049;-78
2021/01/22 02:13:08;;;;;;;2.15;0.43;;;;;;;3.50;91.74;98715.75;5050300;28;20031;-78
2021/01/22 02:15:34;;;;;;;3.13;0.60;;;;;;;3.38;91.98;98724.00;5043220;28;20025;-78
2021/01/22 02:18:00;;;;;;;2.25;0.55;;;;;;;3.33;92.12;98730.69;5041706;28;20039;-78
2021/01/22 02:20:44;;;;;;;;;;;;;;;3.30;92.31;98729.78;5043185;28;20060;-77
2021/01/22 02:23:12;;;;;;;1.20;0.60;;;;;;;3.39;92.25;98732.47;5042611;28;19959;-77
2021/01/22 02:25:42;;;;;;;1.97;0.40;;;;;;;3.36;92.40;98742.56;5040377;28;20025;-77
2021/01/22 02:28:12;;;;;;;2.83;0.73;;;;;;;3.40;92.52;98744.34;5041735;28;20021;-78
2021/01/22 02:30:41;;;;;;;3.87;0.50;;;;;;;3.39;92.62;98748.56;5042326;28;20040;-78
2021/01/22 02:33:07;;;;;;;1.47;0.40;;;;;;;3.31;92.32;98751.78;5036917;28;20030;-78
2021/01/22 02:35:34;;;;;;;4.85;0.63;;;;;;;3.25;92.13;98755.06;5040033;28;20029;-76
2021/01/22 02:37:59;;;;;;;4.67;0.63;;;;;;;3.21;92.06;98755.81;5041581;28;20074;-76
2021/01/22 02:40:25;;;;;;;6.88;0.65;;;;;;;3.12;92.01;98759.03;5043361;28;20104;-76
2021/01/22 02:42:50;;;;;;;4.15;0.32;;;;;;;3.03;92.30;98765.63;5034148;28;20025;-77
2021/01/22 02:45:17;;;;;;;2.38;0.47;;;;;;;2.99;92.59;98758.78;5035724;28;20120;-76
2021/01/22 02:47:48;;;;;;;3.23;0.47;;;;;;;3.12;92.36;98765.78;5041401;28;20379;-77
2021/01/22 02:50:18;;;;;;;3.77;0.43;;;;;;;3.06;92.54;98765.66;5042663;28;20082;-77
2021/01/22 02:52:44;;;;;;;2.23;0.50;;;;;;;3.07;92.54;98772.44;5042154;28;20025;-77
2021/01/22 02:55:11;;;;;;;5.10;0.50;;;;;;;3.06;92.55;98778.34;5040918;28;20127;-76
2021/01/22 02:57:52;;;;;;;5.57;0.60;;;;;;;3.03;92.41;98786.75;5042261;28;20533;-77
2021/01/22 03:00:20;;;;;;;4.70;0.90;;;;;;;2.99;92.88;98785.00;5044257;28;20482;-77
2021/01/22 03:02:51;;;;;;;2.60;0.50;;;;;;;2.92;93.09;98788.19;5037868;28;20035;-77
2021/01/22 03:05:20;;;;;;;2.97;0.60;;;;;;;2.98;93.36;98793.41;5044690;28;20053;-78
2021/01/22 03:07:49;;;;;;;4.10;0.57;;;;;;;2.95;93.05;98788.28;5039556;28;20029;-77
2021/01/22 03:10:20;;;;;;;9.87;0.70;;;;;;;2.94;93.20;98788.25;5034678;28;20513;-77
2021/01/22 03:12:51;;;;;;;8.57;0.50;;;;;;;2.95;93.21;98795.91;5043381;28;20509;-78
2021/01/22 03:15:18;;;;;;;3.07;0.60;;;;;;;2.91;93.24;98795.78;5034168;28;20025;-77
2021/01/22 03:17:43;;;;;;;2.73;0.70;;;;;;;2.83;93.35;98798.16;5039768;28;20053;-78
2021/01/22 03:20:16;;;;;;;3.95;1.08;;;;;;;2.82;93.64;98806.59;5039364;28;20118;-77
2021/01/22 03:22:42;;;;;;;2.30;0.57;;;;;;;2.77;93.57;98796.34;5039433;28;20536;-78
2021/01/22 03:25:13;;;;;;;3.22;0.60;;;;;;;2.76;93.49;98799.72;5040790;28;20029;-77
2021/01/22 03:27:41;;;;;;;4.53;0.60;;;;;;;2.71;93.76;98808.03;5036459;28;20525;-76
2021/01/22 03:30:07;;;;;;;8.23;1.20;;;;;;;2.67;94.08;98808.81;5045365;28;20082;-77
2021/01/22 03:32:33;;;;;;;3.08;0.93;;;;;;;2.65;93.91;98813.84;5039201;28;20036;-77
2021/01/22 03:34:58;;;;;;;3.90;0.55;;;;;;;2.65;94.08;98818.03;5040420;28;20017;-77
2021/01/22 03:37:23;;;;;;;2.10;0.60;;;;;;;2.58;94.31;98822.09;5042047;28;20048;-77
2021/01/22 03:39:49;;;;;;;1.90;0.70;;;;;;;2.60;94.00;98828.09;5043909;28;20279;-78
2021/01/22 03:42:14;;;;;;;6.30;1.10;;;;;;;2.56;94.40;98823.75;5037361;28;20029;-77
2021/01/22 03:44:39;;;;;;;6.47;1.20;;;;;;;2.53;94.40;98838.03;5038008;28;20049;-77
2021/01/22 03:47:06;;;;;;;6.15;1.25;;;;;;;2.59;94.73;98833.09;5044414;28;20282;-76
2021/01/22 03:49:32;;;;;;;7.30;1.03;;;;;;;2.57;94.57;98838.13;5041733;28;20086;-78
2021/01/22 03:51:59;;;;;;;6.97;0.97;;;;;;;2.56;94.54;98846.56;5039854;28;20025;-78
2021/01/22 03:54:24;;;;;;;;;;;;;;;2.59;94.64;98854.22;5046413;28;20160;-76
2021/01/22 03:56:49;;;;;;;8.90;1.10;;;;;;;2.59;94.82;98858.44;5042291;28;19970;-78
2021/01/22 03:59:14;;;;;;;12.93;1.80;;;;;;;2.63;94.91;98852.66;5040228;28;20127;-78
2021/01/22 04:01:39;;;;;;;3.20;1.10;;;;;;;2.60;94.66;98860.16;5042704;28;20709;-77
2021/01/22 04:04:05;;;;;;;9.13;1.10;;;;;;;2.64;95.14;98864.50;5038256;28;20033;-78
2021/01/22 04:06:30;;;;;;;3.37;1.20;;;;;;;2.59;94.85;98871.09;5039487;28;20275;-78
2021/01/22 04:08:55;;;;;;;15.80;1.43;;;;;;;2.61;95.01;98882.16;5038917;28;20813;-77
2021/01/22 04:11:21;;;;;;;6.20;1.40;;;;;;;2.71;94.71;98879.03;5042942;28;20029;-78
2021/01/22 04:13:47;;;;;;;6.88;1.10;;;;;;;2.66;94.99;98884.00;5043604;28;20021;-78
2021/01/22 04:16:13;;;;;;;11.50;1.70;;;;;;;2.74;94.81;98887.56;5041097;28;20037;-77
2021/01/22 04:18:39;;;;;;;10.53;1.47;;;;;;;2.65;94.86;98889.88;5039809;28;20116;-77
2021/01/22 04:21:05;;;;;;;11.10;1.70;;;;;;;2.64;94.77;98887.31;5042266;28;20284;-77
2021/01/22 04:23:30;;;;;;;12.73;1.70;;;;;;;2.53;94.66;98888.72;5048576;28;20029;-77
2021/01/22 04:25:55;;;;;;;8.20;1.83;;;;;;;2.46;94.39;98890.25;5045843;28;20368;-77
2021/01/22 04:28:21;;;;;;;10.90;1.45;;;;;;;2.45;94.52;98888.53;5041866;28;20112;-78
2021/01/22 04:30:46;;;;;;;9.70;1.50;;;;;;;2.43;94.64;98893.56;5039685;28;20060;-78
2021/01/22 04:33:11;;;;;;;13.00;1.88;;;;;;;2.36;94.54;98890.84;5044756;28;20021;-77
2021/01/22 04:35:37;;;;;;;7.38;1.52;;;;;;;2.31;94.83;98893.28;5049627;28;20075;-78
2021/01/22 04:38:02;;;;;;;9.10;1.80;;;;;;;2.33;94.74;98895.84;5041649;28;20075;-76
2021/01/22 04:40:28;;;;;;;12.15;1.42;;;;;;;2.28;94.99;98903.34;5045571;28;20030;-77
2021/01/22 04:42:53;;;;;;;10.45;1.63;;;;;;;2.30;94.95;98899.16;5046544;28;20070;-77
2021/01/22 04:45:19;;;;;;;11.38;1.95;;;;;;;2.22;95.01;98902.28;5044693;28;20111;-77
2021/01/22 04:47:44;;;;;;;13.00;2.13;;;;;;;2.25;95.01;98908.28;5045832;28;20075;-78
2021/01/22 04:50:12;;;;;;;13.80;2.13;;;;;;;2.31;95.09;98910.16;5043000;28;20029;-77
2021/01/22 04:52:38;;;;;;;11.17;2.30;;;;;;;2.27;94.99;98908.34;5039421;28;20032;-77
2021/01/22 04:55:06;;;;;;;11.80;3.03;;;;;;;2.19;94.83;98915.75;5043806;28;20029;-76
2021/01/22 04:57:35;;;;;;;11.10;2.67;;;;;;;2.18;95.17;98911.50;5039305;28;20048;-77
2021/01/22 05:00:03;;;;;;;9.37;2.27;;;;;;;2.29;95.16;98921.94;5046527;28;20032;-77
2021/01/22 05:02:28;;;;;;;11.60;3.20;;;;;;;2.36;95.10;98914.50;5037446;28;20024;-77
2021/01/22 05:04:54;;;;;;;10.47;2.97;;;;;;;2.26;95.03;98914.22;5079155;23;20656;-75
2021/01/22 05:07:21;;;;;;;19.35;3.97;;;;;;;2.19;95.04;98918.28;5084409;28;20274;-77
2021/01/22 05:09:46;;;;;;;19.87;4.00;;;;;;;2.13;95.18;98918.97;5083879;28;20016;-78
2021/01/22 05:12:12;;;;;;;13.90;4.22;;;;;;;2.16;95.40;98925.78;5077937;28;20035;-77
2021/01/22 05:14:37;;;;;;;19.63;5.07;;;;;;;2.16;95.58;98928.31;5076548;28;20062;-76
2021/01/22 05:17:07;;;;;;;14.00;5.70;;;;;;;2.17;95.22;98924.97;5072217;28;20024;-76
2021/01/22 05:19:44;;;;;;;10.17;4.30;;;;;;;2.08;95.54;98932.34;5071899;28;20115;-77
2021/01/22 05:22:14;;;;;;;25.48;4.95;;;;;;;2.02;95.07;98929.66;5071806;28;20158;-77
2021/01/22 05:24:40;;;;;;;21.17;5.77;;;;;;;2.04;95.39;98928.88;5071909;28;20025;-76
2021/01/22 05:27:11;;;;;;;13.40;5.13;;;;;;;2.04;95.46;98933.09;5071778;28;20067;-77
2021/01/22 05:29:40;;;;;;;16.70;5.20;;;;;;;2.10;95.52;98929.03;5072028;28;20077;-76
2021/01/22 05:32:28;;;;;;;17.50;5.77;;;;;;;2.04;95.27;98933.09;5070609;28;20123;-78
2021/01/22 05:34:54;;;;;;;13.67;5.23;;;;;;;2.03;95.58;98931.38;5071669;28;20047;-76
2021/01/22 05:37:19;;;;;;;15.02;5.63;;;;;;;2.10;95.41;98943.38;5070345;28;20059;-78
2021/01/22 05:39:45;;;;;;;16.77;5.88;;;;;;;2.06;95.49;98951.72;5068764;28;20473;-77
2021/01/22 05:42:12;;;;;;;17.10;5.63;;;;;;;2.03;95.19;98952.47;5070322;28;20051;-77
2021/01/22 05:44:51;;;;;;;14.83;5.43;;;;;;;1.90;95.34;98959.69;5071256;28;20029;-79
2021/01/22 05:47:16;;;;;;;14.63;5.97;;;;;;;1.87;95.25;98963.84;5071472;28;20035;-78
2021/01/22 05:50:00;;;;;;;20.00;6.10;;;;;;;1.84;95.42;98963.75;5071229;28;20405;-77
2021/01/22 05:52:25;;;;;;;17.53;7.30;;;;;;;1.87;95.54;98961.31;5069744;28;20067;-76
2021/01/22 05:54:51;;;;;;;20.27;7.72;;;;;;;1.90;95.68;98968.13;5071130;28;20063;-77
2021/01/22 05:57:17;;;;;;;;;;;;;;;1.85;95.67;98973.06;5071754;28;20498;-79
2021/01/22 05:59:42;;;;;;;20.27;7.73;;;;;;;1.86;95.64;98971.41;5071175;28;19912;-77
2021/01/22 06:02:28;;;;;;;23.15;7.55;;;;;;;2.00;95.67;98970.13;5070084;28;20082;-77
2021/01/22 06:05:26;;;;;;;19.17;7.90;;;;;;;1.90;95.51;98985.00;5069912;28;20025;-78
2021/01/22 06:08:08;;;;;;;22.67;7.17;;;;;;;1.85;95.46;98983.19;5048513;28;20036;-77
2021/01/22 06:10:39;;;;;;;24.63;7.80;;;;;;;1.91;95.68;98979.13;5070326;28;20067;-78
2021/01/22 06:13:08;;;;;;;21.37;7.13;;;;;;;1.81;95.54;98978.00;5071452;28;20031;-77
2021/01/22 06:15:35;;;;;;;20.77;7.20;;;;;;;1.79;95.44;98972.06;5071413;28;20043;-76
2021/01/22 06:18:01;;;;;;;22.63;6.97;;;;;;;1.79;95.53;98977.13;5070071;28;20071;-78
2021/01/22 06:20:26;;;;;;;;;;;;;;;1.78;95.38;98983.84;5070577;28;20474;-76
2021/01/22 06:23:14;;;;;;;26.07;9.90;;;;;;;1.76;95.34;98988.00;5071297;28;19919;-77
2021/01/22 06:25:44;;;;;;;21.63;10.20;;;;;;;1.70;95.67;98990.38;5070017;28;20025;-77
2021/01/22 06:28:10;;;;;;;31.03;11.43;;;;;;;1.63;95.56;99000.28;5069917;28;20115;-76
2021/01/22 06:30:37;;;;;;;;;;;;;;;1.60;95.80;99006.09;5071951;28;20032;-78
2021/01/22 06:33:04;;;;;;;24.07;10.07;;;;;;;1.55;95.80;99007.63;5071355;28;19913;-78
2021/01/22 06:35:31;;;;;;;21.27;10.27;;;;;;;1.47;95.87;99006.53;5071456;28;20040;-79
2021/01/22 06:37:58;;;;;;;16.83;9.37;;;;;;;1.46;95.86;99008.22;5074766;28;20025;-80
2021/01/22 06:40:24;;;;;;;24.57;10.10;;;;;;;1.46;96.20;99013.28;5073150;28;20028;-76
2021/01/22 06:42:50;;;;;;;30.53;10.53;;;;;;;1.49;95.87;99022.63;5070754;28;20440;-78
2021/01/22 06:45:20;;;;;;;20.27;10.88;;;;;;;1.46;96.05;99022.53;5069415;28;20017;-78
2021/01/22 06:48:06;;;;;;;30.63;11.30;;;;;;;1.64;96.00;99027.31;5070756;28;20024;-76
2021/01/22 06:50:33;;;;;;;26.33;10.90;;;;;;;1.65;95.96;99029.03;5071056;28;20516;-78
2021/01/22 06:53:11;;;;;;;28.23;11.90;;;;;;;1.66;96.33;99033.28;5070908;28;20028;-77
2021/01/22 06:55:52;;;;;;;25.00;10.73;;;;;;;1.59;96.47;99038.94;5070843;28;20102;-77
2021/01/22 06:58:31;;;;;;;24.67;11.70;;;;;;;1.58;96.25;99045.66;5069350;28;20397;-78
2021/01/22 07:00:58;;;;;;;27.07;11.43;;;;;;;1.56;96.33;99045.63;5071886;28;20108;-78
2021/01/22 07:03:52;;;;;;;26.27;11.00;;;;;;;1.63;96.25;99051.75;5069729;28;20048;-76
2021/01/22 07:06:30;;;;;;;24.83;10.57;;;;;;;1.64;96.21;99056.00;5051323;28;21256;-78
2021/01/22 07:08:56;;;;;;;24.63;11.27;;;;;;;1.62;96.26;99065.19;5070598;28;20017;-77
2021/01/22 07:11:25;;;;;;;25.05;11.50;;;;;;;1.66;96.20;99067.03;5069473;28;20029;-77
2021/01/22 07:13:52;;;;;;;23.33;9.67;;;;;;;1.67;96.25;99066.22;5070137;28;20039;-77
2021/01/22 07:16:17;;;;;;;26.60;9.27;;;;;;;1.67;96.13;99060.28;5068324;28;20033;-77
2021/01/22 07:18:55;;;;;;;21.43;9.10;;;;;;;1.77;96.18;99065.66;5069680;28;20784;-76
2021/01/22 07:21:29;;;;;;;18.37;8.07;;;;;;;1.72;95.78;99069.75;5068546;28;20440;-76
2021/01/22 07:23:58;;;;;;;22.00;8.50;;;;;;;1.73;95.87;99080.72;5068440;28;20028;-76
2021/01/22 07:26:28;;;;;;;19.63;9.33;;;;;;;1.71;95.64;99079.81;5069805;28;20029;-77
2021/01/22 07:28:54;;;;;;;20.27;8.63;;;;;;;1.69;95.80;99082.31;5069503;28;20532;-77
2021/01/22 07:31:51;;;;;;;18.63;8.90;;;;;;;1.58;95.68;99088.69;5067930;28;20040;-79
2021/01/22 07:34:36;;;;;;;21.63;8.50;;;;;;;1.56;95.95;99090.31;5069630;28;20025;-78
2021/01/22 07:37:05;;;;;;;16.83;7.10;;;;;;;1.50;95.75;99101.09;5061903;28;20526;-77
2021/01/22 07:39:31;;;;;;;21.23;7.97;;;;;;;1.65;95.98;99100.75;5069447;28;20086;-76
2021/01/22 07:42:11;;;;;;;18.05;7.45;;;;;;;1.53;95.76;99106.25;5069527;28;20028;-78
2021/01/22 07:44:37;;;;;;;21.83;6.90;;;;;;;1.46;95.90;99109.41;5069470;28;20074;-78
2021/01/22 07:47:04;;;;;;;19.37;7.43;;;;;;;1.46;95.85;99113.63;5068575;28;20024;-77
2021/01/22 07:49:29;;;;;;;21.93;7.20;;;;;;;1.52;95.86;99109.59;5068013;28;20052;-77
2021/01/22 07:51:55;;;;;;;20.88;6.97;;;;;;;1.44;95.81;99108.50;5069635;28;20048;-78
2021/01/22 07:54:20;;;;;;;16.27;7.03;;;;;;;1.42;96.05;99112.66;5068160;28;20074;-76
2021/01/22 07:56:47;;;;;;;22.48;7.60;;;;;;;1.47;96.19;99120.41;5072838;28;20020;-78
2021/01/22 07:59:13;;;;;;;15.83;6.90;;;;;;;1.51;96.08;99118.00;5073894;28;20453;-79
2021/01/22 08:01:39;;;;;;;16.75;6.35;;;;;;;1.52;95.99;99123.94;5073281;28;20024;-77
2021/01/22 08:04:06;;;;;;;13.02;6.40;;;;;;;1.59;96.01;99130.91;5076360;28;20090;-79
2021/01/22 08:06:50;;;;;;;20.30;6.97;;;;;;;1.71;96.01;99128.78;5075871;28;20028;-77
2021/01/22 08:09:17;;;;;;;17.50;6.70;;;;;;;1.65;95.65;99136.19;5076666;28;20044;-79
2021/01/22 08:11:44;;;;;;;16.70;6.70;;;;;;;1.64;95.69;99144.59;5073827;28;20016;-78
2021/01/22 08:14:09;;;;;;;14.43;6.83;;;;;;;1.76;95.68;99147.47;5078088;28;20020;-80
2021/01/22 08:16:36;;;;;;;17.50;7.35;;;;;;;1.81;95.68;99151.00;5079016;28;20052;-79
2021/01/22 08:19:03;;;;;;;13.80;6.60;;;;;;;1.75;95.45;99158.41;5078463;28;20482;-78
2021/01/22 08:21:30;;;;;;;13.90;6.23;;;;;;;1.83;95.27;99156.13;5076933;28;20028;-78
2021/01/22 08:23:59;;;;;;;16.00;6.63;;;;;;;1.75;95.33;99165.16;5076120;28;20032;-79
2021/01/22 08:26:26;;;;;;;18.33;6.63;;;;;;;1.80;95.31;99161.94;5077622;28;20490;-79
2021/01/22 08:28:54;;;;;;;23.70;7.27;;;;;;;1.83;95.51;99164.56;5075547;28;20074;-78
2021/01/22 08:31:20;;;;;;;12.80;6.77;;;;;;;1.87;95.60;99166.38;5076584;28;20559;-81
2021/01/22 08:33:46;;;;;;;15.82;6.90;;;;;;;1.94;95.30;99182.63;5079063;28;20051;-81
2021/01/22 08:36:12;;;;;;;;;;;;;;;1.96;95.25;99175.09;5073918;28;20474;-79
2021/01/22 08:38:37;;;;;;;16.07;6.30;;;;;;;1.94;95.26;99179.22;5076402;28;19923;-81
2021/01/22 08:41:04;;;;;;;12.98;6.15;;;;;;;1.99;95.17;99187.84;5078063;28;20031;-80
2021/01/22 08:43:29;;;;;;;18.87;6.70;;;;;;;2.09;95.22;99179.72;5077461;28;20043;-80
2021/01/22 08:46:11;;;;;;;21.33;6.00;;;;;;;2.11;95.22;99178.94;5076693;28;20498;-80
2021/01/22 08:48:37;;;;;;;19.70;6.93;;;;;;;2.19;94.89;99191.84;5076233;28;20020;-79
2021/01/22 08:51:03;;;;;;;23.50;7.03;;;;;;;2.22;94.91;99188.53;5076130;28;20107;-77
2021/01/22 08:53:29;;;;;;;22.48;6.85;;;;;;;2.26;94.92;99201.34;5076896;28;20040;-82
2021/01/22 08:56:15;;;;;;;11.57;5.57;;;;;;;2.35;94.61;99203.31;5078205;28;20032;-78
2021/01/22 08:59:09;;;;;;;18.37;6.30;;;;;;;2.53;93.96;99208.03;5078435;28;20024;-80
2021/01/22 09:01:52;;;;;;;15.83;6.83;;;;;;;2.50;93.95;99214.75;5077412;28;20048;-77
2021/01/22 09:04:33;;;;;;;12.83;6.00;;;;;;;2.57;94.02;99214.91;5076484;28;20497;-79
2021/01/22 09:07:00;;;;;;;14.70;5.93;;;;;;;2.68;93.90;99216.97;5076327;28;20087;-79
2021/01/22 09:09:48;;;;;;;14.80;7.03;;;;;;;2.84;93.40;99227.53;5076148;28;20025;-80
2021/01/22 09:12:18;;;;;;;21.43;6.43;;;;;;;2.88;92.95;99221.72;5077023;28;20054;-79
2021/01/22 09:14:44;;;;;;;17.83;6.23;;;;;;;2.94;93.11;99232.94;5076438;28;20074;-79
2021/01/22 09:17:18;;;;;;;;;;;;;;;3.03;92.59;99232.31;5077192;28;20032;-77
2021/01/22 09:19:58;;;;;;;17.23;7.20;;;;;;;3.05;92.30;99236.63;5074874;28;19913;-81
2021/01/22 09:22:27;;;;;;;16.77;6.80;;;;;;;3.09;92.20;99240.09;5074098;28;20028;-79
2021/01/22 09:24:53;;;;;;;18.83;6.67;;;;;;;3.09;92.17;99246.03;5076860;28;20069;-79
2021/01/22 09:27:18;;;;;;;15.45;7.00;;;;;;;3.10;92.20;99252.81;5074814;28;20371;-78
2021/01/22 09:29:44;;;;;;;15.95;6.40;;;;;;;3.18;91.93;99257.22;5075472;28;20050;-80
2021/01/22 09:32:09;;;;;;;19.13;6.53;;;;;;;3.25;91.39;99259.13;5077283;28;20502;-80
2021/01/22 09:34:34;;;;;;;13.13;6.15;;;;;;;3.37;91.39;99262.00;5075890;28;20330;-79
2021/01/22 09:37:00;;;;;;;19.30;6.70;;;;;;;3.79;91.25;99259.72;5075175;28;20024;-81
2021/01/22 09:39:29;;;;;;;12.50;5.07;;;;;;;4.37;88.78;99259.44;5074599;28;20185;-78
2021/01/22 09:41:54;;;;;;;16.47;4.73;;;;;;;5.09;85.72;99266.06;5075425;28;20098;-79
2021/01/22 09:44:20;;;;;;;9.15;4.35;;;;;;;5.83;83.31;99266.59;5073873;28;20024;-78
2021/01/22 09:46:45;;;;;;;10.63;4.38;;;;;;;6.23;80.73;99273.25;5075980;28;20050;-78
2021/01/22 09:49:11;;;;;;;13.73;4.27;;;;;;;6.24;80.24;99266.47;5074941;28;20028;-78
2021/01/22 09:51:36;;;;;;;17.75;4.47;;;;;;;6.59;79.92;99261.88;5075357;28;20788;-77
2021/01/22 09:54:01;;;;;;;12.52;3.75;;;;;;;6.80;77.94;99266.41;5075530;28;20024;-79
2021/01/22 09:56:27;;;;;;;14.15;3.50;;;;;;;6.98;79.03;99270.91;5075442;28;20032;-78
2021/01/22 09:58:52;;;;;;;8.20;3.22;;;;;;;7.48;79.14;99282.59;5074511;28;21399;-80
2021/01/22 10:01:17;;;;;;;11.80;3.67;;;;;;;8.00;74.62;99279.66;5073520;28;20016;-77
2021/01/22 10:03:42;;;;;;;14.00;3.27;;;;;;;8.73;72.29;99287.91;5076684;28;20390;-80
2021/01/22 10:06:12;;;;;;;12.93;3.23;;;;;;;9.26;72.04;99289.91;5075441;28;20273;-78
2021/01/22 10:08:37;;;;;;;14.07;3.72;;;;;;;8.88;70.33;99288.03;5073676;28;20051;-80
2021/01/22 10:11:02;;;;;;;11.25;3.08;;;;;;;8.91;71.43;99302.56;5074512;28;20454;-79
2021/01/22 10:13:28;;;;;;;10.95;3.20;;;;;;;9.13;72.13;99304.38;5074510;28;20119;-80
2021/01/22 10:15:53;;;;;;;8.27;3.00;;;;;;;8.88;72.40;99307.66;5074451;28;20030;-79
2021/01/22 10:18:18;;;;;;;7.28;2.47;;;;;;;8.48;72.51;99317.63;5075163;28;20779;-78
2021/01/22 10:20:48;;;;;;;10.73;2.70;;;;;;;7.67;72.92;99316.00;5073605;28;20031;-78
2021/01/22 10:23:13;;;;;;;11.93;2.88;;;;;;;7.53;76.13;99320.09;5075120;28;20028;-79
2021/01/22 10:25:38;;;;;;;7.87;2.40;;;;;;;8.22;77.46;99319.94;5072857;28;20027;-78
2021/01/22 10:28:04;;;;;;;12.73;2.65;;;;;;;9.06;74.68;99320.53;5074459;28;20517;-79
2021/01/22 10:30:29;;;;;;;13.98;2.95;;;;;;;8.93;70.76;99311.94;5072712;28;20052;-79
2021/01/22 10:32:54;;;;;;;12.50;2.90;;;;;;;8.58;71.58;99313.44;5075240;28;20024;-79
2021/01/22 10:35:20;;;;;;;11.35;3.20;;;;;;;8.84;73.63;99316.16;5074936;28;20054;-79
2021/01/22 10:37:45;;;;;;;9.50;2.90;;;;;;;9.84;69.85;99316.59;5073243;28;20051;-78
2021/01/22 10:40:11;;;;;;;6.78;2.00;;;;;;;10.63;67.10;99323.50;5074143;28;20093;-81
2021/01/22 10:42:36;;;;;;;8.95;2.35;;;;;;;10.76;65.66;99303.81;5072506;28;20438;-81
2021/01/22 10:45:02;;;;;;;9.30;2.57;;;;;;;10.48;67.87;99318.38;5073449;28;20031;-79
2021/01/22 10:47:29;;;;;;;10.73;2.78;;;;;;;10.00;68.44;99325.16;5075297;28;20336;-77
2021/01/22 10:49:54;;;;;;;8.38;2.53;;;;;;;10.13;67.55;99318.34;5072651;28;20463;-78
2021/01/22 10:52:20;;;;;;;6.10;2.10;;;;;;;9.78;68.56;99325.97;5075094;28;20064;-78
2021/01/22 10:54:45;;;;;;;10.00;2.47;;;;;;;9.59;68.67;99328.47;5074251;28;20478;-77
2021/01/22 10:57:10;;;;;;;11.37;2.20;;;;;;;10.05;70.44;99335.41;5074617;28;20029;-79
2021/01/22 10:59:37;;;;;;;12.20;2.43;;;;;;;10.12;67.12;99324.31;5073244;28;20286;-80
2021/01/22 11:02:07;;;;;;;12.43;2.30;;;;;;;10.41;65.41;99330.38;5074633;28;20103;-79
2021/01/22 11:07:09;;;;;;;10.30;1.92;;;;;;;10.77;66.28;99338.91;5044358;28;20042;-80
2021/01/22 11:09:34;;;;;;;7.80;2.30;;;;;;;10.60;67.18;99342.31;5042708;28;20031;-79
2021/01/22 11:12:04;;;;;;;8.65;1.90;;;;;;;10.23;65.54;99348.31;5047101;28;20279;-79
2021/01/22 11:14:29;;;;;;;9.20;2.13;;;;;;;9.93;67.98;99357.63;5044460;28;20029;-80
2021/01/22 11:16:54;;;;;;;7.07;2.10;;;;;;;9.75;67.81;99356.72;5047112;28;20522;-79
2021/01/22 11:19:19;;;;;;;14.03;2.73;;;;;;;9.29;69.23;99361.66;5046190;28;20016;-79
2021/01/22 11:21:45;;;;;;;9.87;2.37;;;;;;;9.16;69.16;99363.31;5044676;28;20649;-79
2021/01/22 11:24:10;;;;;;;9.70;2.10;;;;;;;9.16;68.17;99365.88;5044728;28;20025;-78
2021/01/22 11:26:35;;;;;;;10.77;2.65;;;;;;;8.90;69.96;99362.31;5043432;28;20021;-79
2021/01/22 11:29:01;;;;;;;8.50;2.10;;;;;;;8.39;71.49;99368.72;5042738;28;20021;-79
2021/01/22 11:31:26;;;;;;;14.37;3.33;;;;;;;8.64;72.92;99369.78;5047242;28;20820;-79
2021/01/22 11:33:52;;;;;;;11.10;2.75;;;;;;;9.01;69.31;99368.34;5046331;28;20022;-79
2021/01/22 11:36:17;;;;;;;19.55;2.70;;;;;;;8.90;70.18;99375.09;5047120;28;20020;-79
2021/01/22 11:38:42;;;;;;;8.32;2.42;;;;;;;8.92;69.63;99374.25;5046879;28;20021;-78
2021/01/22 11:41:08;;;;;;;7.43;2.20;;;;;;;8.67;71.17;99380.91;5046118;28;20108;-79
2021/01/22 11:43:33;;;;;;;10.93;2.40;;;;;;;9.41;68.61;99365.97;5046442;28;20287;-80
2021/01/22 11:45:58;;;;;;;9.77;2.13;;;;;;;10.16;65.74;99374.78;5045268;28;20286;-81